sensor_id;sensor_type;location;lat;lon;timestamp;pressure;altitude;pressure_sealevel;temperature;humidity
56894;BME280;43392;50.078;13.704;2023-07-16T00:00:50;96389.09;;;25.17;44.61
56894;BME280;43392;50.078;13.704;2023-07-16T00:03:17;96395.34;;;25.14;44.24
56894;BME280;43392;50.078;13.704;2023-07-16T00:05:43;96398.06;;;25.10;44.62
56894;BME280;43392;50.078;13.704;2023-07-16T00:08:10;96426.59;;;24.98;45.93
56894;BME280;43392;50.078;13.704;2023-07-16T00:10:38;96536.59;;;24.50;47.79
56894;BME280;43392;50.078;13.704;2023-07-16T00:13:04;96555.25;;;23.77;49.81
56894;BME280;43392;50.078;13.704;2023-07-16T00:15:31;96568.22;;;23.32;51.67
56894;BME280;43392;50.078;13.704;2023-07-16T00:17:57;96551.56;;;23.18;52.12
56894;BME280;43392;50.078;13.704;2023-07-16T00:20:24;96527.16;;;23.32;51.16
56894;BME280;43392;50.078;13.704;2023-07-16T00:22:50;96572.09;;;23.53;51.00
56894;BME280;43392;50.078;13.704;2023-07-16T00:25:17;96585.50;;;23.62;51.29
56894;BME280;43392;50.078;13.704;2023-07-16T00:27:44;96565.81;;;23.79;50.73
56894;BME280;43392;50.078;13.704;2023-07-16T00:30:11;96554.00;;;24.01;49.72
56894;BME280;43392;50.078;13.704;2023-07-16T00:32:38;96573.75;;;24.14;49.29
56894;BME280;43392;50.078;13.704;2023-07-16T00:35:05;96574.22;;;24.19;49.59
56894;BME280;43392;50.078;13.704;2023-07-16T00:37:32;96576.66;;;24.24;49.99
56894;BME280;43392;50.078;13.704;2023-07-16T00:39:59;96583.34;;;24.27;50.40
56894;BME280;43392;50.078;13.704;2023-07-16T00:42:25;96582.47;;;24.23;51.08
56894;BME280;43392;50.078;13.704;2023-07-16T00:44:53;96576.59;;;24.21;51.50
56894;BME280;43392;50.078;13.704;2023-07-16T00:47:19;96590.66;;;24.19;51.46
56894;BME280;43392;50.078;13.704;2023-07-16T00:49:47;96588.28;;;24.18;51.52
56894;BME280;43392;50.078;13.704;2023-07-16T00:52:14;96591.44;;;24.20;51.70
56894;BME280;43392;50.078;13.704;2023-07-16T00:54:42;96595.78;;;24.21;51.98
56894;BME280;43392;50.078;13.704;2023-07-16T00:57:09;96591.09;;;24.21;51.48
56894;BME280;43392;50.078;13.704;2023-07-16T00:59:35;96599.31;;;24.21;52.27
56894;BME280;43392;50.078;13.704;2023-07-16T01:02:03;96594.97;;;24.20;51.77
56894;BME280;43392;50.078;13.704;2023-07-16T01:04:29;96584.72;;;24.14;52.99
56894;BME280;43392;50.078;13.704;2023-07-16T01:06:57;96585.44;;;24.11;53.23
56894;BME280;43392;50.078;13.704;2023-07-16T01:09:24;96588.56;;;24.09;52.98
56894;BME280;43392;50.078;13.704;2023-07-16T01:11:50;96575.97;;;24.05;53.36
56894;BME280;43392;50.078;13.704;2023-07-16T01:14:17;96564.16;;;24.01;53.53
56894;BME280;43392;50.078;13.704;2023-07-16T01:16:44;96558.25;;;23.99;53.25
56894;BME280;43392;50.078;13.704;2023-07-16T01:19:12;96548.47;;;23.98;53.50
56894;BME280;43392;50.078;13.704;2023-07-16T01:21:40;96560.97;;;23.95;54.02
56894;BME280;43392;50.078;13.704;2023-07-16T01:24:13;96562.91;;;23.95;53.36
56894;BME280;43392;50.078;13.704;2023-07-16T01:26:51;96564.06;;;23.94;53.43
56894;BME280;43392;50.078;13.704;2023-07-16T01:29:29;96569.53;;;23.94;53.39
56894;BME280;43392;50.078;13.704;2023-07-16T01:31:57;96579.34;;;23.95;54.02
56894;BME280;43392;50.078;13.704;2023-07-16T01:34:25;96584.41;;;23.93;53.15
56894;BME280;43392;50.078;13.704;2023-07-16T01:36:53;96592.22;;;23.91;53.90
56894;BME280;43392;50.078;13.704;2023-07-16T01:39:19;96571.03;;;23.88;53.17
56894;BME280;43392;50.078;13.704;2023-07-16T01:41:46;96583.56;;;23.89;54.05
56894;BME280;43392;50.078;13.704;2023-07-16T01:44:12;96591.34;;;23.87;53.86
56894;BME280;43392;50.078;13.704;2023-07-16T01:46:40;96601.88;;;23.85;53.80
56894;BME280;43392;50.078;13.704;2023-07-16T01:49:06;96623.28;;;23.75;54.52
56894;BME280;43392;50.078;13.704;2023-07-16T01:51:32;96634.06;;;23.65;55.00
56894;BME280;43392;50.078;13.704;2023-07-16T01:53:59;96646.00;;;23.53;55.61
56894;BME280;43392;50.078;13.704;2023-07-16T01:56:25;96652.56;;;23.49;55.99
56894;BME280;43392;50.078;13.704;2023-07-16T01:58:52;96650.13;;;23.44;56.24
56894;BME280;43392;50.078;13.704;2023-07-16T02:01:18;96668.09;;;23.41;56.29
56894;BME280;43392;50.078;13.704;2023-07-16T02:03:46;96673.84;;;23.36;56.52
56894;BME280;43392;50.078;13.704;2023-07-16T02:06:12;96693.69;;;23.33;56.92
56894;BME280;43392;50.078;13.704;2023-07-16T02:08:39;96681.91;;;23.29;57.28
56894;BME280;43392;50.078;13.704;2023-07-16T02:11:06;96684.22;;;23.27;56.90
56894;BME280;43392;50.078;13.704;2023-07-16T02:13:32;96686.97;;;23.27;57.21
56894;BME280;43392;50.078;13.704;2023-07-16T02:15:58;96685.03;;;23.28;56.92
56894;BME280;43392;50.078;13.704;2023-07-16T02:18:25;96709.28;;;23.29;57.05
56894;BME280;43392;50.078;13.704;2023-07-16T02:20:53;96724.69;;;23.18;57.95
56894;BME280;43392;50.078;13.704;2023-07-16T02:23:19;96722.59;;;23.11;58.60
56894;BME280;43392;50.078;13.704;2023-07-16T02:25:45;96729.16;;;23.07;58.38
56894;BME280;43392;50.078;13.704;2023-07-16T02:28:12;96709.59;;;23.05;58.81
56894;BME280;43392;50.078;13.704;2023-07-16T02:30:40;96715.06;;;23.05;58.67
56894;BME280;43392;50.078;13.704;2023-07-16T02:33:06;96711.53;;;23.04;58.77
56894;BME280;43392;50.078;13.704;2023-07-16T02:35:33;96716.56;;;23.02;58.35
56894;BME280;43392;50.078;13.704;2023-07-16T02:38:00;96718.94;;;23.04;58.38
56894;BME280;43392;50.078;13.704;2023-07-16T02:40:27;96709.72;;;23.12;57.86
56894;BME280;43392;50.078;13.704;2023-07-16T02:42:53;96718.31;;;23.10;57.98
56894;BME280;43392;50.078;13.704;2023-07-16T02:45:20;96740.91;;;23.07;58.41
56894;BME280;43392;50.078;13.704;2023-07-16T02:47:46;96741.56;;;23.01;58.41
56894;BME280;43392;50.078;13.704;2023-07-16T02:50:13;96742.63;;;22.96;58.70
56894;BME280;43392;50.078;13.704;2023-07-16T02:52:39;96749.69;;;22.97;58.28
56894;BME280;43392;50.078;13.704;2023-07-16T02:55:07;96780.19;;;22.99;58.15
56894;BME280;43392;50.078;13.704;2023-07-16T02:57:33;96791.38;;;23.10;57.63
56894;BME280;43392;50.078;13.704;2023-07-16T03:00:00;96800.66;;;23.25;57.13
56894;BME280;43392;50.078;13.704;2023-07-16T03:02:26;96814.09;;;23.33;57.18
56894;BME280;43392;50.078;13.704;2023-07-16T03:04:53;96827.28;;;23.28;57.83
56894;BME280;43392;50.078;13.704;2023-07-16T03:07:19;96829.66;;;23.29;57.77
56894;BME280;43392;50.078;13.704;2023-07-16T03:09:45;96829.16;;;23.24;58.26
56894;BME280;43392;50.078;13.704;2023-07-16T03:12:13;96832.13;;;23.15;58.61
56894;BME280;43392;50.078;13.704;2023-07-16T03:14:40;96840.31;;;23.15;58.57
56894;BME280;43392;50.078;13.704;2023-07-16T03:17:06;96866.72;;;23.07;59.23
56894;BME280;43392;50.078;13.704;2023-07-16T03:19:32;96867.06;;;23.06;60.16
56894;BME280;43392;50.078;13.704;2023-07-16T03:21:59;96877.00;;;22.95;60.81
56894;BME280;43392;50.078;13.704;2023-07-16T03:24:25;96886.09;;;22.83;61.01
56894;BME280;43392;50.078;13.704;2023-07-16T03:26:52;96879.59;;;22.72;61.81
56894;BME280;43392;50.078;13.704;2023-07-16T03:29:19;96887.44;;;22.58;62.82
56894;BME280;43392;50.078;13.704;2023-07-16T03:31:46;96883.13;;;22.41;63.75
56894;BME280;43392;50.078;13.704;2023-07-16T03:34:12;96874.16;;;22.25;64.68
56894;BME280;43392;50.078;13.704;2023-07-16T03:36:39;96872.28;;;22.14;65.77
56894;BME280;43392;50.078;13.704;2023-07-16T03:39:05;96879.66;;;21.98;66.84
56894;BME280;43392;50.078;13.704;2023-07-16T03:41:31;96886.97;;;21.94;67.51
56894;BME280;43392;50.078;13.704;2023-07-16T03:43:58;96878.03;;;21.81;68.74
56894;BME280;43392;50.078;13.704;2023-07-16T03:46:26;96888.44;;;21.63;69.66
56894;BME280;43392;50.078;13.704;2023-07-16T03:48:52;96906.16;;;21.42;71.29
56894;BME280;43392;50.078;13.704;2023-07-16T03:51:19;96906.66;;;21.20;73.26
56894;BME280;43392;50.078;13.704;2023-07-16T03:53:45;96905.94;;;21.07;73.10
56894;BME280;43392;50.078;13.704;2023-07-16T03:56:12;96911.81;;;20.97;73.95
56894;BME280;43392;50.078;13.704;2023-07-16T03:58:38;96919.88;;;20.93;74.78
56894;BME280;43392;50.078;13.704;2023-07-16T04:01:05;96920.31;;;20.95;74.64
56894;BME280;43392;50.078;13.704;2023-07-16T04:03:33;96908.88;;;20.90;75.02
56894;BME280;43392;50.078;13.704;2023-07-16T04:06:02;96918.53;;;20.87;75.83
56894;BME280;43392;50.078;13.704;2023-07-16T04:08:29;96938.50;;;20.91;75.33
56894;BME280;43392;50.078;13.704;2023-07-16T04:10:55;96936.38;;;20.85;76.45
56894;BME280;43392;50.078;13.704;2023-07-16T04:13:22;96933.88;;;20.80;77.36
56894;BME280;43392;50.078;13.704;2023-07-16T04:15:48;96915.69;;;20.72;77.51
56894;BME280;43392;50.078;13.704;2023-07-16T04:18:15;96893.66;;;20.65;77.72
56894;BME280;43392;50.078;13.704;2023-07-16T04:20:42;96894.81;;;20.64;77.37
56894;BME280;43392;50.078;13.704;2023-07-16T04:23:09;96901.63;;;20.58;77.85
56894;BME280;43392;50.078;13.704;2023-07-16T04:25:35;96906.63;;;20.56;77.83
56894;BME280;43392;50.078;13.704;2023-07-16T04:28:02;96920.25;;;20.56;78.04
56894;BME280;43392;50.078;13.704;2023-07-16T04:30:29;96907.50;;;20.60;78.87
56894;BME280;43392;50.078;13.704;2023-07-16T04:32:55;96895.81;;;20.59;78.47
56894;BME280;43392;50.078;13.704;2023-07-16T04:35:21;96910.16;;;20.56;79.13
56894;BME280;43392;50.078;13.704;2023-07-16T04:37:49;96925.56;;;20.52;80.26
56894;BME280;43392;50.078;13.704;2023-07-16T04:40:16;96905.94;;;20.59;79.58
56894;BME280;43392;50.078;13.704;2023-07-16T04:42:42;96904.69;;;20.68;79.16
56894;BME280;43392;50.078;13.704;2023-07-16T04:45:08;96899.78;;;20.86;78.23
56894;BME280;43392;50.078;13.704;2023-07-16T04:47:35;96902.97;;;21.12;77.32
56894;BME280;43392;50.078;13.704;2023-07-16T04:50:01;96904.09;;;21.51;76.09
56894;BME280;43392;50.078;13.704;2023-07-16T04:52:28;96900.44;;;21.87;74.74
56894;BME280;43392;50.078;13.704;2023-07-16T04:54:55;96900.19;;;22.07;73.41
56894;BME280;43392;50.078;13.704;2023-07-16T04:57:22;96905.25;;;22.21;73.31
56894;BME280;43392;50.078;13.704;2023-07-16T04:59:48;96899.78;;;22.36;72.29
56894;BME280;43392;50.078;13.704;2023-07-16T05:02:15;96890.00;;;22.51;71.55
56894;BME280;43392;50.078;13.704;2023-07-16T05:04:42;96872.72;;;22.63;71.30
56894;BME280;43392;50.078;13.704;2023-07-16T05:07:09;96880.81;;;22.75;71.01
56894;BME280;43392;50.078;13.704;2023-07-16T05:09:36;96901.81;;;22.86;70.87
56894;BME280;43392;50.078;13.704;2023-07-16T05:12:04;96886.06;;;22.99;70.42
56894;BME280;43392;50.078;13.704;2023-07-16T05:14:30;96884.66;;;23.05;69.99
56894;BME280;43392;50.078;13.704;2023-07-16T05:16:57;96882.06;;;23.12;69.56
56894;BME280;43392;50.078;13.704;2023-07-16T05:19:23;96876.75;;;23.19;69.33
56894;BME280;43392;50.078;13.704;2023-07-16T05:21:50;96872.13;;;23.23;69.12
56894;BME280;43392;50.078;13.704;2023-07-16T05:24:16;96861.31;;;23.30;68.71
56894;BME280;43392;50.078;13.704;2023-07-16T05:26:42;96855.94;;;23.34;68.80
56894;BME280;43392;50.078;13.704;2023-07-16T05:29:10;96859.56;;;23.38;68.16
56894;BME280;43392;50.078;13.704;2023-07-16T05:31:36;96865.13;;;23.41;68.24
56894;BME280;43392;50.078;13.704;2023-07-16T05:34:03;96866.78;;;23.46;67.89
56894;BME280;43392;50.078;13.704;2023-07-16T05:36:29;96882.06;;;23.47;67.97
56894;BME280;43392;50.078;13.704;2023-07-16T05:38:56;96882.47;;;23.49;67.64
56894;BME280;43392;50.078;13.704;2023-07-16T05:41:22;96877.44;;;23.51;67.35
56894;BME280;43392;50.078;13.704;2023-07-16T05:43:48;96885.69;;;23.54;67.62
56894;BME280;43392;50.078;13.704;2023-07-16T05:46:16;96899.84;;;23.56;67.13
56894;BME280;43392;50.078;13.704;2023-07-16T05:48:42;96905.47;;;23.44;67.56
56894;BME280;43392;50.078;13.704;2023-07-16T05:51:09;96916.84;;;23.31;67.96
56894;BME280;43392;50.078;13.704;2023-07-16T05:53:35;96900.84;;;23.13;68.44
56894;BME280;43392;50.078;13.704;2023-07-16T05:56:02;96908.69;;;22.96;68.75
56894;BME280;43392;50.078;13.704;2023-07-16T05:58:28;96907.19;;;22.83;69.15
56894;BME280;43392;50.078;13.704;2023-07-16T06:00:55;96905.00;;;22.73;69.31
56894;BME280;43392;50.078;13.704;2023-07-16T06:03:22;96898.22;;;22.67;69.82
56894;BME280;43392;50.078;13.704;2023-07-16T06:05:49;96907.34;;;22.59;69.93
56894;BME280;43392;50.078;13.704;2023-07-16T06:08:15;96921.66;;;22.52;69.81
56894;BME280;43392;50.078;13.704;2023-07-16T06:10:42;96930.44;;;22.45;70.47
56894;BME280;43392;50.078;13.704;2023-07-16T06:13:08;96952.66;;;22.44;70.06
56894;BME280;43392;50.078;13.704;2023-07-16T06:15:34;96949.50;;;22.42;70.36
56894;BME280;43392;50.078;13.704;2023-07-16T06:18:02;96953.28;;;22.37;69.97
56894;BME280;43392;50.078;13.704;2023-07-16T06:20:30;96953.19;;;22.34;70.13
56894;BME280;43392;50.078;13.704;2023-07-16T06:22:56;96959.72;;;22.29;70.16
56894;BME280;43392;50.078;13.704;2023-07-16T06:25:22;96959.63;;;22.26;70.42
56894;BME280;43392;50.078;13.704;2023-07-16T06:27:49;96955.75;;;22.27;72.46
56894;BME280;43392;50.078;13.704;2023-07-16T06:30:15;96973.66;;;22.40;70.10
56894;BME280;43392;50.078;13.704;2023-07-16T06:32:42;96968.25;;;22.43;70.15
56894;BME280;43392;50.078;13.704;2023-07-16T06:35:08;96982.03;;;22.47;69.83
56894;BME280;43392;50.078;13.704;2023-07-16T06:37:36;96979.75;;;22.49;69.83
56894;BME280;43392;50.078;13.704;2023-07-16T06:40:03;96979.75;;;22.49;70.14
56894;BME280;43392;50.078;13.704;2023-07-16T06:42:30;96983.59;;;22.48;69.75
56894;BME280;43392;50.078;13.704;2023-07-16T06:44:57;96987.50;;;22.47;69.74
56894;BME280;43392;50.078;13.704;2023-07-16T06:47:23;96985.56;;;22.48;69.96
56894;BME280;43392;50.078;13.704;2023-07-16T06:49:49;96995.34;;;22.48;70.26
56894;BME280;43392;50.078;13.704;2023-07-16T06:52:19;96986.34;;;22.48;69.51
56894;BME280;43392;50.078;13.704;2023-07-16T06:54:47;96987.13;;;22.48;69.64
56894;BME280;43392;50.078;13.704;2023-07-16T06:57:14;96980.53;;;22.50;69.80
56894;BME280;43392;50.078;13.704;2023-07-16T06:59:40;96973.59;;;22.52;69.60
56894;BME280;43392;50.078;13.704;2023-07-16T07:02:07;96979.47;;;22.54;69.65
56894;BME280;43392;50.078;13.704;2023-07-16T07:04:33;96978.31;;;22.55;69.78
56894;BME280;43392;50.078;13.704;2023-07-16T07:06:59;96979.56;;;22.58;69.57
56894;BME280;43392;50.078;13.704;2023-07-16T07:09:26;96981.59;;;22.61;69.67
56894;BME280;43392;50.078;13.704;2023-07-16T07:11:53;96982.44;;;22.61;69.66
56894;BME280;43392;50.078;13.704;2023-07-16T07:14:20;96989.50;;;22.62;69.67
56894;BME280;43392;50.078;13.704;2023-07-16T07:16:46;96994.97;;;22.62;69.23
56894;BME280;43392;50.078;13.704;2023-07-16T07:19:13;96990.38;;;22.66;69.64
56894;BME280;43392;50.078;13.704;2023-07-16T07:21:39;96993.16;;;22.70;70.26
56894;BME280;43392;50.078;13.704;2023-07-16T07:24:05;96992.84;;;22.71;69.47
56894;BME280;43392;50.078;13.704;2023-07-16T07:26:32;97005.09;;;22.77;69.01
56894;BME280;43392;50.078;13.704;2023-07-16T07:29:00;97003.25;;;22.81;69.01
56894;BME280;43392;50.078;13.704;2023-07-16T07:31:26;97010.38;;;22.86;69.05
56894;BME280;43392;50.078;13.704;2023-07-16T07:33:52;97003.00;;;22.86;68.99
56894;BME280;43392;50.078;13.704;2023-07-16T07:36:19;97008.53;;;22.90;69.37
56894;BME280;43392;50.078;13.704;2023-07-16T07:38:46;97015.16;;;22.89;68.95
56894;BME280;43392;50.078;13.704;2023-07-16T07:41:12;97018.22;;;22.87;68.89
56894;BME280;43392;50.078;13.704;2023-07-16T07:43:38;97021.22;;;22.82;69.44
56894;BME280;43392;50.078;13.704;2023-07-16T07:46:06;97027.75;;;22.78;69.05
56894;BME280;43392;50.078;13.704;2023-07-16T07:48:33;97035.97;;;22.78;70.79
56894;BME280;43392;50.078;13.704;2023-07-16T07:50:59;97037.47;;;22.91;69.66
56894;BME280;43392;50.078;13.704;2023-07-16T07:53:26;97034.00;;;22.94;69.42
56894;BME280;43392;50.078;13.704;2023-07-16T07:55:52;97028.09;;;22.92;69.03
56894;BME280;43392;50.078;13.704;2023-07-16T07:58:20;97040.03;;;22.84;69.31
56894;BME280;43392;50.078;13.704;2023-07-16T08:00:46;97041.88;;;22.80;69.25
56894;BME280;43392;50.078;13.704;2023-07-16T08:03:14;97045.22;;;22.73;69.35
56894;BME280;43392;50.078;13.704;2023-07-16T08:05:40;97044.34;;;22.69;69.10
56894;BME280;43392;50.078;13.704;2023-07-16T08:08:07;97034.09;;;22.66;70.16
56894;BME280;43392;50.078;13.704;2023-07-16T08:10:33;97042.19;;;22.63;69.07
56894;BME280;43392;50.078;13.704;2023-07-16T08:13:00;97023.44;;;22.61;69.36
56894;BME280;43392;50.078;13.704;2023-07-16T08:15:26;97030.34;;;22.59;69.47
56894;BME280;43392;50.078;13.704;2023-07-16T08:17:52;97031.84;;;22.56;69.18
56894;BME280;43392;50.078;13.704;2023-07-16T08:20:20;97033.78;;;22.56;69.29
56894;BME280;43392;50.078;13.704;2023-07-16T08:22:47;97040.41;;;22.55;69.20
56894;BME280;43392;50.078;13.704;2023-07-16T08:25:13;97039.25;;;22.56;69.37
56894;BME280;43392;50.078;13.704;2023-07-16T08:27:39;97040.75;;;22.53;69.53
56894;BME280;43392;50.078;13.704;2023-07-16T08:30:06;97046.56;;;22.52;69.25
56894;BME280;43392;50.078;13.704;2023-07-16T08:32:33;97057.06;;;22.50;69.29
56894;BME280;43392;50.078;13.704;2023-07-16T08:34:59;97061.38;;;22.51;69.25
56894;BME280;43392;50.078;13.704;2023-07-16T08:37:27;97058.31;;;22.52;69.21
56894;BME280;43392;50.078;13.704;2023-07-16T08:39:53;97053.59;;;22.53;69.09
56894;BME280;43392;50.078;13.704;2023-07-16T08:42:20;97060.69;;;22.54;69.22
56894;BME280;43392;50.078;13.704;2023-07-16T08:44:47;97065.00;;;22.55;69.03
56894;BME280;43392;50.078;13.704;2023-07-16T08:47:14;97050.78;;;22.49;68.63
56894;BME280;43392;50.078;13.704;2023-07-16T08:49:41;97062.34;;;22.58;68.94
56894;BME280;43392;50.078;13.704;2023-07-16T08:52:07;97067.50;;;22.60;68.56
56894;BME280;43392;50.078;13.704;2023-07-16T08:54:37;97062.78;;;22.60;68.34
56894;BME280;43392;50.078;13.704;2023-07-16T08:57:03;97076.47;;;22.60;68.37
56894;BME280;43392;50.078;13.704;2023-07-16T08:59:30;97080.00;;;22.61;67.81
56894;BME280;43392;50.078;13.704;2023-07-16T09:01:57;97081.63;;;22.62;68.05
56894;BME280;43392;50.078;13.704;2023-07-16T09:04:23;97090.63;;;22.62;68.25
56894;BME280;43392;50.078;13.704;2023-07-16T09:06:50;97092.41;;;22.58;67.86
56894;BME280;43392;50.078;13.704;2023-07-16T09:09:20;97096.66;;;22.56;67.96
56894;BME280;43392;50.078;13.704;2023-07-16T09:11:48;97091.63;;;22.58;67.48
56894;BME280;43392;50.078;13.704;2023-07-16T09:14:16;97092.88;;;22.60;67.78
56894;BME280;43392;50.078;13.704;2023-07-16T09:16:42;97105.44;;;22.61;67.45
56894;BME280;43392;50.078;13.704;2023-07-16T09:19:09;97111.00;;;22.65;67.39
56894;BME280;43392;50.078;13.704;2023-07-16T09:21:38;97111.09;;;22.68;66.71
56894;BME280;43392;50.078;13.704;2023-07-16T09:24:06;97124.41;;;22.70;66.86
56894;BME280;43392;50.078;13.704;2023-07-16T09:26:32;97118.94;;;22.70;66.56
56894;BME280;43392;50.078;13.704;2023-07-16T09:29:00;97120.09;;;22.69;66.43
56894;BME280;43392;50.078;13.704;2023-07-16T09:31:26;97122.03;;;22.68;66.42
56894;BME280;43392;50.078;13.704;2023-07-16T09:33:53;97116.91;;;22.67;66.51
56894;BME280;43392;50.078;13.704;2023-07-16T09:36:23;97119.97;;;22.65;66.37
56894;BME280;43392;50.078;13.704;2023-07-16T09:38:49;97124.19;;;22.63;66.02
56894;BME280;43392;50.078;13.704;2023-07-16T09:41:16;97117.16;;;22.62;66.14
56894;BME280;43392;50.078;13.704;2023-07-16T09:43:43;97121.00;;;22.61;65.94
56894;BME280;43392;50.078;13.704;2023-07-16T09:46:11;97117.97;;;22.62;66.03
56894;BME280;43392;50.078;13.704;2023-07-16T09:48:37;97128.97;;;22.66;65.64
56894;BME280;43392;50.078;13.704;2023-07-16T09:51:04;97125.13;;;22.67;65.69
56894;BME280;43392;50.078;13.704;2023-07-16T09:53:33;97125.88;;;22.67;65.46
56894;BME280;43392;50.078;13.704;2023-07-16T09:56:02;97130.59;;;22.67;65.28
56894;BME280;43392;50.078;13.704;2023-07-16T09:58:30;97121.22;;;22.68;65.43
56894;BME280;43392;50.078;13.704;2023-07-16T10:00:57;97118.75;;;22.63;65.52
56894;BME280;43392;50.078;13.704;2023-07-16T10:03:26;97126.47;;;22.61;65.63
56894;BME280;43392;50.078;13.704;2023-07-16T10:05:52;97126.72;;;22.56;65.63
56894;BME280;43392;50.078;13.704;2023-07-16T10:08:19;97129.38;;;22.52;65.61
56894;BME280;43392;50.078;13.704;2023-07-16T10:10:47;97138.59;;;22.48;65.68
56894;BME280;43392;50.078;13.704;2023-07-16T10:13:14;97136.22;;;22.46;65.96
56894;BME280;43392;50.078;13.704;2023-07-16T10:15:50;97140.88;;;22.45;66.08
56894;BME280;43392;50.078;13.704;2023-07-16T10:18:22;97140.09;;;22.45;65.96
56894;BME280;43392;50.078;13.704;2023-07-16T10:20:51;97144.75;;;22.44;65.89
56894;BME280;43392;50.078;13.704;2023-07-16T10:23:17;97148.63;;;22.43;66.04
56894;BME280;43392;50.078;13.704;2023-07-16T10:25:57;97153.19;;;22.39;66.32
56894;BME280;43392;50.078;13.704;2023-07-16T10:28:23;97145.00;;;22.39;66.48
56894;BME280;43392;50.078;13.704;2023-07-16T10:30:50;97145.00;;;22.39;66.76
56894;BME280;43392;50.078;13.704;2023-07-16T10:33:16;97149.66;;;22.39;66.26
56894;BME280;43392;50.078;13.704;2023-07-16T10:35:45;97158.22;;;22.37;66.32
56894;BME280;43392;50.078;13.704;2023-07-16T10:38:13;97160.16;;;22.37;66.16
56894;BME280;43392;50.078;13.704;2023-07-16T10:40:39;97154.25;;;22.35;66.06
56894;BME280;43392;50.078;13.704;2023-07-16T10:43:06;97142.16;;;22.36;66.31
56894;BME280;43392;50.078;13.704;2023-07-16T10:45:32;97148.41;;;22.36;65.99
56894;BME280;43392;50.078;13.704;2023-07-16T10:47:59;97141.38;;;22.35;65.88
56894;BME280;43392;50.078;13.704;2023-07-16T10:50:25;97157.41;;;22.37;66.08
56894;BME280;43392;50.078;13.704;2023-07-16T10:52:52;97145.69;;;22.36;65.68
56894;BME280;43392;50.078;13.704;2023-07-16T10:55:20;97141.81;;;22.37;65.60
56894;BME280;43392;50.078;13.704;2023-07-16T10:57:47;97142.97;;;22.36;65.78
56894;BME280;43392;50.078;13.704;2023-07-16T11:00:14;97139.78;;;22.34;65.72
56894;BME280;43392;50.078;13.704;2023-07-16T11:02:41;97135.91;;;22.35;66.02
56894;BME280;43392;50.078;13.704;2023-07-16T11:05:09;97141.81;;;22.37;65.83
56894;BME280;43392;50.078;13.704;2023-07-16T11:07:36;97142.28;;;22.39;66.02
56894;BME280;43392;50.078;13.704;2023-07-16T11:10:02;97154.78;;;22.40;66.00
56894;BME280;43392;50.078;13.704;2023-07-16T11:12:30;97148.97;;;22.42;65.83
56894;BME280;43392;50.078;13.704;2023-07-16T11:14:56;97143.97;;;22.44;65.79
56894;BME280;43392;50.078;13.704;2023-07-16T11:17:23;97137.69;;;22.43;65.74
56894;BME280;43392;50.078;13.704;2023-07-16T11:19:52;97143.97;;;22.44;65.64
56894;BME280;43392;50.078;13.704;2023-07-16T11:22:18;97134.63;;;22.45;65.52
56894;BME280;43392;50.078;13.704;2023-07-16T11:24:45;97141.66;;;22.46;65.48
56894;BME280;43392;50.078;13.704;2023-07-16T11:27:13;97134.28;;;22.46;65.66
56894;BME280;43392;50.078;13.704;2023-07-16T11:29:44;97129.25;;;22.48;65.27
56894;BME280;43392;50.078;13.704;2023-07-16T11:32:11;97119.56;;;22.51;65.18
56894;BME280;43392;50.078;13.704;2023-07-16T11:34:37;97125.47;;;22.53;64.97
56894;BME280;43392;50.078;13.704;2023-07-16T11:37:06;97122.84;;;22.57;64.98
56894;BME280;43392;50.078;13.704;2023-07-16T11:39:33;97137.41;;;22.61;64.96
56894;BME280;43392;50.078;13.704;2023-07-16T11:41:59;97129.66;;;22.63;64.95
56894;BME280;43392;50.078;13.704;2023-07-16T11:44:31;97135.25;;;22.66;64.47
56894;BME280;43392;50.078;13.704;2023-07-16T11:46:59;97136.13;;;22.70;64.43
56894;BME280;43392;50.078;13.704;2023-07-16T11:49:26;97133.50;;;22.74;64.72
56894;BME280;43392;50.078;13.704;2023-07-16T11:51:52;97130.09;;;22.77;64.32
56894;BME280;43392;50.078;13.704;2023-07-16T11:54:19;97133.69;;;22.81;64.45
56894;BME280;43392;50.078;13.704;2023-07-16T11:56:45;97133.44;;;22.86;64.04
56894;BME280;43392;50.078;13.704;2023-07-16T11:59:12;97119.94;;;22.93;63.88
56894;BME280;43392;50.078;13.704;2023-07-16T12:01:38;97116.59;;;22.99;63.86
56894;BME280;43392;50.078;13.704;2023-07-16T12:04:06;97117.59;;;23.07;63.09
56894;BME280;43392;50.078;13.704;2023-07-16T12:06:33;97118.94;;;23.13;62.71
56894;BME280;43392;50.078;13.704;2023-07-16T12:08:59;97106.19;;;23.21;62.82
56894;BME280;43392;50.078;13.704;2023-07-16T12:11:26;97107.25;;;23.32;62.19
56894;BME280;43392;50.078;13.704;2023-07-16T12:13:52;97108.78;;;23.45;62.20
56894;BME280;43392;50.078;13.704;2023-07-16T12:16:18;97107.81;;;23.53;61.77
56894;BME280;43392;50.078;13.704;2023-07-16T12:18:45;97109.63;;;23.64;62.01
56894;BME280;43392;50.078;13.704;2023-07-16T12:21:13;97109.78;;;23.71;61.17
56894;BME280;43392;50.078;13.704;2023-07-16T12:23:39;97113.06;;;23.77;61.15
56894;BME280;43392;50.078;13.704;2023-07-16T12:26:05;97104.19;;;23.84;60.65
56894;BME280;43392;50.078;13.704;2023-07-16T12:28:33;97103.94;;;23.89;60.70
56894;BME280;43392;50.078;13.704;2023-07-16T12:31:00;97104.06;;;23.96;60.55
56894;BME280;43392;50.078;13.704;2023-07-16T12:33:26;97103.09;;;24.04;60.11
56894;BME280;43392;50.078;13.704;2023-07-16T12:35:53;97095.00;;;24.07;59.30
56894;BME280;43392;50.078;13.704;2023-07-16T12:38:20;97098.38;;;24.20;59.04
56894;BME280;43392;50.078;13.704;2023-07-16T12:40:47;97097.75;;;24.26;58.84
56894;BME280;43392;50.078;13.704;2023-07-16T12:43:14;97094.13;;;24.41;58.74
56894;BME280;43392;50.078;13.704;2023-07-16T12:45:40;97087.72;;;24.53;58.23
56894;BME280;43392;50.078;13.704;2023-07-16T12:48:06;97083.59;;;24.63;58.15